sensor_id;sensor_type;location;lat;lon;timestamp;pressure;altitude;pressure_sealevel;temperature;humidity
48216;BME280;34005;48.844;10.098;2023-05-10T00:00:12;96022.88;;;16.48;78.50
48216;BME280;34005;48.844;10.098;2023-05-10T00:02:40;96023.13;;;16.46;79.12
48216;BME280;34005;48.844;10.098;2023-05-10T00:05:08;96017.28;;;16.44;78.93
48216;BME280;34005;48.844;10.098;2023-05-10T00:07:36;96023.34;;;16.45;80.34
48216;BME280;34005;48.844;10.098;2023-05-10T00:10:04;96024.38;;;16.44;77.40
48216;BME280;34005;48.844;10.098;2023-05-10T00:12:33;96018.88;;;16.45;80.58
48216;BME280;34005;48.844;10.098;2023-05-10T00:15:01;96013.13;;;16.48;80.12
48216;BME280;34005;48.844;10.098;2023-05-10T00:17:29;96023.00;;;16.41;76.29
48216;BME280;34005;48.844;10.098;2023-05-10T00:19:56;96025.88;;;16.40;78.43
48216;BME280;34005;48.844;10.098;2023-05-10T00:22:24;96012.38;;;16.36;78.06
48216;BME280;34005;48.844;10.098;2023-05-10T00:24:52;96009.75;;;16.36;79.15
48216;BME280;34005;48.844;10.098;2023-05-10T00:27:19;96010.53;;;16.37;77.23
48216;BME280;34005;48.844;10.098;2023-05-10T00:29:48;96013.75;;;16.39;80.46
48216;BME280;34005;48.844;10.098;2023-05-10T00:32:16;96011.69;;;16.41;79.51
48216;BME280;34005;48.844;10.098;2023-05-10T00:34:44;96005.94;;;16.44;79.43
48216;BME280;34005;48.844;10.098;2023-05-10T00:37:11;96019.66;;;16.46;80.04
48216;BME280;34005;48.844;10.098;2023-05-10T00:39:39;96019.66;;;16.46;78.92
48216;BME280;34005;48.844;10.098;2023-05-10T00:42:07;96021.16;;;16.42;78.52
48216;BME280;34005;48.844;10.098;2023-05-10T00:44:34;96021.16;;;16.42;79.11
48216;BME280;34005;48.844;10.098;2023-05-10T00:47:03;96019.78;;;16.39;78.20
48216;BME280;34005;48.844;10.098;2023-05-10T00:49:31;96012.16;;;16.38;78.43
48216;BME280;34005;48.844;10.098;2023-05-10T00:51:59;96017.63;;;16.36;79.01
48216;BME280;34005;48.844;10.098;2023-05-10T00:54:28;96019.69;;;16.34;79.87
48216;BME280;34005;48.844;10.098;2023-05-10T00:56:56;96018.66;;;16.35;80.32
48216;BME280;34005;48.844;10.098;2023-05-10T00:59:24;96022.34;;;16.34;80.17
48216;BME280;34005;48.844;10.098;2023-05-10T01:01:51;96018.09;;;16.33;80.26
48216;BME280;34005;48.844;10.098;2023-05-10T01:04:20;96019.03;;;16.27;77.55
48216;BME280;34005;48.844;10.098;2023-05-10T01:06:52;96021.53;;;16.22;78.93
48216;BME280;34005;48.844;10.098;2023-05-10T01:09:20;96021.66;;;16.15;78.43
48216;BME280;34005;48.844;10.098;2023-05-10T01:11:48;96018.16;;;16.10;78.74
48216;BME280;34005;48.844;10.098;2023-05-10T01:14:18;96030.03;;;16.00;76.70
48216;BME280;34005;48.844;10.098;2023-05-10T01:16:47;96021.47;;;15.93;79.05
48216;BME280;34005;48.844;10.098;2023-05-10T01:19:22;96032.34;;;15.97;81.56
48216;BME280;34005;48.844;10.098;2023-05-10T01:21:58;96026.03;;;15.98;80.74
48216;BME280;34005;48.844;10.098;2023-05-10T01:28:13;96032.66;;;16.00;79.46
48216;BME280;34005;48.844;10.098;2023-05-10T01:31:03;96034.75;;;15.98;81.02
48216;BME280;34005;48.844;10.098;2023-05-10T01:33:39;96036.56;;;15.98;81.15
48216;BME280;34005;48.844;10.098;2023-05-10T01:36:13;96038.03;;;15.94;80.85
48216;BME280;34005;48.844;10.098;2023-05-10T01:38:49;96039.66;;;15.95;80.38
48216;BME280;34005;48.844;10.098;2023-05-10T01:41:20;96038.84;;;15.94;80.19
48216;BME280;34005;48.844;10.098;2023-05-10T01:43:55;96044.13;;;15.94;81.04
48216;BME280;34005;48.844;10.098;2023-05-10T01:46:26;96047.44;;;15.90;79.37
48216;BME280;34005;48.844;10.098;2023-05-10T01:48:57;96052.25;;;15.81;79.35
48216;BME280;34005;48.844;10.098;2023-05-10T01:51:31;96057.22;;;15.71;79.44
48216;BME280;34005;48.844;10.098;2023-05-10T01:54:03;96064.53;;;15.57;77.08
48216;BME280;34005;48.844;10.098;2023-05-10T01:56:35;96066.69;;;15.48;77.13
48216;BME280;34005;48.844;10.098;2023-05-10T01:59:06;96060.50;;;15.42;78.18
48216;BME280;34005;48.844;10.098;2023-05-10T02:01:36;96067.88;;;15.34;76.37
48216;BME280;34005;48.844;10.098;2023-05-10T02:04:06;96056.91;;;15.25;77.91
48216;BME280;34005;48.844;10.098;2023-05-10T02:06:36;96065.09;;;15.17;75.89
48216;BME280;34005;48.844;10.098;2023-05-10T02:09:06;96066.81;;;15.11;76.37
48216;BME280;34005;48.844;10.098;2023-05-10T02:11:34;96074.91;;;15.10;75.70
48216;BME280;34005;48.844;10.098;2023-05-10T02:14:06;96071.47;;;15.09;75.70
48216;BME280;34005;48.844;10.098;2023-05-10T02:16:35;96079.56;;;15.08;77.59
48216;BME280;34005;48.844;10.098;2023-05-10T02:19:06;96081.63;;;15.06;77.56
48216;BME280;34005;48.844;10.098;2023-05-10T02:21:35;96092.78;;;15.01;75.75
48216;BME280;34005;48.844;10.098;2023-05-10T02:24:04;96090.03;;;14.96;76.19
48216;BME280;34005;48.844;10.098;2023-05-10T02:26:33;96084.22;;;14.94;76.70
48216;BME280;34005;48.844;10.098;2023-05-10T02:29:03;96093.53;;;14.90;76.69
48216;BME280;34005;48.844;10.098;2023-05-10T02:31:32;96092.16;;;14.87;78.06
48216;BME280;34005;48.844;10.098;2023-05-10T02:34:01;96096.00;;;14.84;77.67
48216;BME280;34005;48.844;10.098;2023-05-10T02:36:31;96093.25;;;14.79;76.28
48216;BME280;34005;48.844;10.098;2023-05-10T02:39:01;96090.28;;;14.76;75.79
48216;BME280;34005;48.844;10.098;2023-05-10T02:41:30;96104.88;;;14.72;77.70
48216;BME280;34005;48.844;10.098;2023-05-10T02:44:01;96090.34;;;14.69;78.39
48216;BME280;34005;48.844;10.098;2023-05-10T02:46:30;96101.66;;;14.70;78.23
48216;BME280;34005;48.844;10.098;2023-05-10T02:48:58;96097.22;;;14.70;78.01
48216;BME280;34005;48.844;10.098;2023-05-10T02:51:28;96107.50;;;14.72;77.52
48216;BME280;34005;48.844;10.098;2023-05-10T02:54:03;96103.25;;;14.71;78.81
48216;BME280;34005;48.844;10.098;2023-05-10T02:56:36;96106.09;;;14.69;77.08
48216;BME280;34005;48.844;10.098;2023-05-10T02:59:08;96107.00;;;14.63;76.67
48216;BME280;34005;48.844;10.098;2023-05-10T03:01:35;96108.66;;;14.57;77.43
48216;BME280;34005;48.844;10.098;2023-05-10T03:04:03;96112.13;;;14.51;77.40
48216;BME280;34005;48.844;10.098;2023-05-10T03:06:31;96117.69;;;14.43;76.07
48216;BME280;34005;48.844;10.098;2023-05-10T03:09:01;96117.72;;;14.36;75.59
48216;BME280;34005;48.844;10.098;2023-05-10T03:11:39;96120.00;;;14.33;76.78
48216;BME280;34005;48.844;10.098;2023-05-10T03:14:16;96118.03;;;14.28;75.52
48216;BME280;34005;48.844;10.098;2023-05-10T03:16:55;96127.75;;;14.21;75.11
48216;BME280;34005;48.844;10.098;2023-05-10T03:19:27;96121.13;;;14.18;75.92
48216;BME280;34005;48.844;10.098;2023-05-10T03:21:59;96119.09;;;14.20;77.72
48216;BME280;34005;48.844;10.098;2023-05-10T03:24:34;96120.06;;;14.26;79.10
48216;BME280;34005;48.844;10.098;2023-05-10T03:27:03;96122.22;;;14.29;78.72
48216;BME280;34005;48.844;10.098;2023-05-10T03:29:31;96126.63;;;14.35;79.00
48216;BME280;34005;48.844;10.098;2023-05-10T03:32:00;96131.88;;;14.35;77.61
48216;BME280;34005;48.844;10.098;2023-05-10T03:34:30;96134.03;;;14.38;78.80
48216;BME280;34005;48.844;10.098;2023-05-10T03:36:57;96135.06;;;14.37;76.86
48216;BME280;34005;48.844;10.098;2023-05-10T03:39:25;96134.94;;;14.32;76.78
48216;BME280;34005;48.844;10.098;2023-05-10T03:41:54;96138.56;;;14.31;75.52
48216;BME280;34005;48.844;10.098;2023-05-10T03:44:21;96140.19;;;14.32;77.75
48216;BME280;34005;48.844;10.098;2023-05-10T03:46:49;96150.44;;;14.34;78.16
48216;BME280;34005;48.844;10.098;2023-05-10T03:49:16;96153.66;;;14.36;79.30
48216;BME280;34005;48.844;10.098;2023-05-10T03:51:44;96159.28;;;14.39;78.41
48216;BME280;34005;48.844;10.098;2023-05-10T03:54:11;96154.81;;;14.40;77.75
48216;BME280;34005;48.844;10.098;2023-05-10T03:56:39;96158.84;;;14.42;78.59
48216;BME280;34005;48.844;10.098;2023-05-10T03:59:08;96159.41;;;14.45;78.14
48216;BME280;34005;48.844;10.098;2023-05-10T04:01:35;96155.22;;;14.43;76.27
48216;BME280;34005;48.844;10.098;2023-05-10T04:04:03;96162.03;;;14.45;78.07
48216;BME280;34005;48.844;10.098;2023-05-10T04:06:31;96164.84;;;14.50;78.71
48216;BME280;34005;48.844;10.098;2023-05-10T04:08:59;96152.69;;;14.55;79.79
48216;BME280;34005;48.844;10.098;2023-05-10T04:11:30;96154.53;;;14.55;77.88
48216;BME280;34005;48.844;10.098;2023-05-10T04:13:57;96150.25;;;14.54;78.26
48216;BME280;34005;48.844;10.098;2023-05-10T04:16:26;96161.16;;;14.57;78.29
48216;BME280;34005;48.844;10.098;2023-05-10T04:18:54;96160.34;;;14.57;79.24
48216;BME280;34005;48.844;10.098;2023-05-10T04:21:21;96154.06;;;14.58;79.14
48216;BME280;34005;48.844;10.098;2023-05-10T04:23:49;96153.47;;;14.56;77.46
48216;BME280;34005;48.844;10.098;2023-05-10T04:26:17;96158.31;;;14.59;78.66
48216;BME280;34005;48.844;10.098;2023-05-10T04:28:44;96158.31;;;14.59;79.58
48216;BME280;34005;48.844;10.098;2023-05-10T04:31:12;96153.66;;;14.61;79.92
48216;BME280;34005;48.844;10.098;2023-05-10T04:33:41;96162.31;;;14.61;80.74
48216;BME280;34005;48.844;10.098;2023-05-10T04:36:08;96156.03;;;14.62;80.55
48216;BME280;34005;48.844;10.098;2023-05-10T04:38:36;96157.06;;;14.61;81.02
48216;BME280;34005;48.844;10.098;2023-05-10T04:41:04;96155.84;;;14.64;80.35
48216;BME280;34005;48.844;10.098;2023-05-10T04:43:32;96161.09;;;14.64;81.08
48216;BME280;34005;48.844;10.098;2023-05-10T04:46:00;96158.66;;;14.62;79.18
48216;BME280;34005;48.844;10.098;2023-05-10T04:48:28;96160.50;;;14.62;79.30
48216;BME280;34005;48.844;10.098;2023-05-10T04:50:57;96164.16;;;14.61;78.41
48216;BME280;34005;48.844;10.098;2023-05-10T04:53:25;96165.53;;;14.63;79.49
48216;BME280;34005;48.844;10.098;2023-05-10T04:55:52;96161.47;;;14.68;80.90
48216;BME280;34005;48.844;10.098;2023-05-10T04:58:20;96169.69;;;14.71;80.96
48216;BME280;34005;48.844;10.098;2023-05-10T05:00:47;96166.84;;;14.73;80.77
48216;BME280;34005;48.844;10.098;2023-05-10T05:03:16;96171.88;;;14.74;80.15
48216;BME280;34005;48.844;10.098;2023-05-10T05:05:43;96172.31;;;14.71;78.05
48216;BME280;34005;48.844;10.098;2023-05-10T05:08:12;96173.13;;;14.72;78.95
48216;BME280;34005;48.844;10.098;2023-05-10T05:10:40;96174.34;;;14.69;78.07
48216;BME280;34005;48.844;10.098;2023-05-10T05:13:07;96174.34;;;14.69;78.59
48216;BME280;34005;48.844;10.098;2023-05-10T05:15:37;96181.81;;;14.72;78.36
48216;BME280;34005;48.844;10.098;2023-05-10T05:18:05;96181.00;;;14.72;79.15
48216;BME280;34005;48.844;10.098;2023-05-10T05:20:32;96173.94;;;14.72;78.69
48216;BME280;34005;48.844;10.098;2023-05-10T05:23:00;96179.97;;;14.73;79.31
48216;BME280;34005;48.844;10.098;2023-05-10T05:25:29;96185.00;;;14.74;79.89
48216;BME280;34005;48.844;10.098;2023-05-10T05:27:57;96192.44;;;14.77;79.87
48216;BME280;34005;48.844;10.098;2023-05-10T05:30:24;96192.03;;;14.80;79.46
48216;BME280;34005;48.844;10.098;2023-05-10T05:32:54;96190.41;;;14.79;77.57
48216;BME280;34005;48.844;10.098;2023-05-10T05:35:21;96194.06;;;14.78;78.31
48216;BME280;34005;48.844;10.098;2023-05-10T05:37:49;96193.63;;;14.81;78.23
48216;BME280;34005;48.844;10.098;2023-05-10T05:40:16;96197.88;;;14.82;76.66
48216;BME280;34005;48.844;10.098;2023-05-10T05:42:45;96196.03;;;14.83;77.65
48216;BME280;34005;48.844;10.098;2023-05-10T05:45:13;96201.22;;;14.90;78.41
48216;BME280;34005;48.844;10.098;2023-05-10T05:47:41;96201.22;;;14.90;76.29
48216;BME280;34005;48.844;10.098;2023-05-10T05:50:09;96204.72;;;14.83;75.44
48216;BME280;34005;48.844;10.098;2023-05-10T05:52:37;96207.78;;;14.80;76.06
48216;BME280;34005;48.844;10.098;2023-05-10T05:55:05;96203.31;;;14.81;76.46
48216;BME280;34005;48.844;10.098;2023-05-10T05:57:32;96204.13;;;14.81;75.74
48216;BME280;34005;48.844;10.098;2023-05-10T06:00:02;96210.16;;;14.82;77.59
48216;BME280;34005;48.844;10.098;2023-05-10T06:02:29;96207.34;;;14.83;77.65
48216;BME280;34005;48.844;10.098;2023-05-10T06:04:57;96215.00;;;14.85;76.95
48216;BME280;34005;48.844;10.098;2023-05-10T06:07:24;96210.53;;;14.86;77.46
48216;BME280;34005;48.844;10.098;2023-05-10T06:10:30;96215.78;;;14.86;77.36
48216;BME280;34005;48.844;10.098;2023-05-10T06:12:57;96224.13;;;14.82;78.15
48216;BME280;34005;48.844;10.098;2023-05-10T06:15:26;96217.47;;;14.80;78.71
48216;BME280;34005;48.844;10.098;2023-05-10T06:17:54;96219.28;;;14.79;78.02
48216;BME280;34005;48.844;10.098;2023-05-10T06:20:22;96215.66;;;14.80;78.79
48216;BME280;34005;48.844;10.098;2023-05-10T06:22:49;96217.38;;;14.87;79.57
48216;BME280;34005;48.844;10.098;2023-05-10T06:25:17;96215.34;;;14.89;78.42
48216;BME280;34005;48.844;10.098;2023-05-10T06:27:45;96222.44;;;14.88;77.31
48216;BME280;34005;48.844;10.098;2023-05-10T06:30:18;96230.97;;;14.83;76.91
48216;BME280;34005;48.844;10.098;2023-05-10T06:32:48;96227.16;;;14.79;75.47
48216;BME280;34005;48.844;10.098;2023-05-10T06:35:15;96235.50;;;14.76;75.41
48216;BME280;34005;48.844;10.098;2023-05-10T06:37:44;96238.69;;;14.78;75.55
48216;BME280;34005;48.844;10.098;2023-05-10T06:40:13;96242.13;;;14.79;76.32
48216;BME280;34005;48.844;10.098;2023-05-10T06:42:40;96244.53;;;14.80;76.74
48216;BME280;34005;48.844;10.098;2023-05-10T06:45:09;96249.56;;;14.82;75.75
48216;BME280;34005;48.844;10.098;2023-05-10T06:47:36;96250.16;;;14.84;76.49
48216;BME280;34005;48.844;10.098;2023-05-10T06:50:07;96248.69;;;14.88;77.36
48216;BME280;34005;48.844;10.098;2023-05-10T06:52:35;96252.56;;;14.86;75.08
48216;BME280;34005;48.844;10.098;2023-05-10T06:55:03;96247.50;;;14.84;75.68
48216;BME280;34005;48.844;10.098;2023-05-10T06:57:31;96254.00;;;14.81;74.90
48216;BME280;34005;48.844;10.098;2023-05-10T06:59:59;96253.88;;;14.76;76.05
48216;BME280;34005;48.844;10.098;2023-05-10T07:02:27;96257.94;;;14.72;75.43
48216;BME280;34005;48.844;10.098;2023-05-10T07:04:55;96259.31;;;14.75;75.66
48216;BME280;34005;48.844;10.098;2023-05-10T07:07:27;96260.72;;;14.77;75.83
48216;BME280;34005;48.844;10.098;2023-05-10T07:09:55;96263.34;;;14.77;75.00
48216;BME280;34005;48.844;10.098;2023-05-10T07:12:24;96259.47;;;14.80;76.07
48216;BME280;34005;48.844;10.098;2023-05-10T07:14:51;96266.69;;;14.84;76.44
48216;BME280;34005;48.844;10.098;2023-05-10T07:17:19;96269.50;;;14.90;76.50
48216;BME280;34005;48.844;10.098;2023-05-10T07:19:47;96270.09;;;14.92;75.92
48216;BME280;34005;48.844;10.098;2023-05-10T07:22:14;96271.47;;;14.94;74.80
48216;BME280;34005;48.844;10.098;2023-05-10T07:24:44;96273.28;;;14.94;73.71
48216;BME280;34005;48.844;10.098;2023-05-10T07:27:11;96267.81;;;14.95;75.76
48216;BME280;34005;48.844;10.098;2023-05-10T07:29:40;96270.44;;;14.95;75.09
48216;BME280;34005;48.844;10.098;2023-05-10T07:32:07;96269.63;;;14.95;73.30
48216;BME280;34005;48.844;10.098;2023-05-10T07:34:35;96269.22;;;14.98;74.79
48216;BME280;34005;48.844;10.098;2023-05-10T07:37:02;96268.91;;;15.06;75.97
48216;BME280;34005;48.844;10.098;2023-05-10T07:39:30;96276.72;;;15.13;74.63
48216;BME280;34005;48.844;10.098;2023-05-10T07:41:59;96271.25;;;15.14;73.25
48216;BME280;34005;48.844;10.098;2023-05-10T07:44:26;96277.31;;;15.15;75.24
48216;BME280;34005;48.844;10.098;2023-05-10T07:46:54;96274.25;;;15.18;75.79
48216;BME280;34005;48.844;10.098;2023-05-10T07:49:22;96273.03;;;15.20;75.65
48216;BME280;34005;48.844;10.098;2023-05-10T07:51:50;96282.50;;;15.21;73.72
48216;BME280;34005;48.844;10.098;2023-05-10T07:54:18;96271.41;;;15.19;72.61
48216;BME280;34005;48.844;10.098;2023-05-10T07:56:45;96281.69;;;15.21;72.08
48216;BME280;34005;48.844;10.098;2023-05-10T07:59:16;96284.47;;;15.26;74.33
48216;BME280;34005;48.844;10.098;2023-05-10T08:01:44;96275.88;;;15.37;72.98
48216;BME280;34005;48.844;10.098;2023-05-10T08:04:12;96274.47;;;15.53;72.60
48216;BME280;34005;48.844;10.098;2023-05-10T08:06:40;96272.91;;;15.64;73.55
48216;BME280;34005;48.844;10.098;2023-05-10T08:09:08;96279.88;;;15.77;73.90
48216;BME280;34005;48.844;10.098;2023-05-10T08:11:36;96273.06;;;15.88;73.25
48216;BME280;34005;48.844;10.098;2023-05-10T08:14:03;96277.66;;;15.92;71.33
48216;BME280;34005;48.844;10.098;2023-05-10T08:16:32;96283.50;;;15.94;73.33
48216;BME280;34005;48.844;10.098;2023-05-10T08:19:00;96281.28;;;15.91;71.46
48216;BME280;34005;48.844;10.098;2023-05-10T08:21:28;96290.22;;;15.90;72.87
48216;BME280;34005;48.844;10.098;2023-05-10T08:23:57;96283.34;;;15.89;73.84
48216;BME280;34005;48.844;10.098;2023-05-10T08:26:25;96285.38;;;15.87;71.20
48216;BME280;34005;48.844;10.098;2023-05-10T08:28:52;96293.28;;;15.87;72.79
48216;BME280;34005;48.844;10.098;2023-05-10T08:31:20;96297.53;;;15.88;72.85
48216;BME280;34005;48.844;10.098;2023-05-10T08:33:49;96303.59;;;15.89;71.87
48216;BME280;34005;48.844;10.098;2023-05-10T08:36:17;96304.84;;;15.86;73.30
48216;BME280;34005;48.844;10.098;2023-05-10T08:38:50;96298.78;;;15.85;73.69
48216;BME280;34005;48.844;10.098;2023-05-10T08:41:19;96306.88;;;15.84;73.29
48216;BME280;34005;48.844;10.098;2023-05-10T08:43:47;96296.81;;;15.81;73.09
48216;BME280;34005;48.844;10.098;2023-05-10T08:46:17;96309.16;;;15.80;73.28
48216;BME280;34005;48.844;10.098;2023-05-10T08:48:45;96297.63;;;15.81;73.33
48216;BME280;34005;48.844;10.098;2023-05-10T08:51:17;96311.09;;;15.85;73.38
48216;BME280;34005;48.844;10.098;2023-05-10T08:53:45;96301.53;;;15.91;72.61
48216;BME280;34005;48.844;10.098;2023-05-10T08:56:13;96307.28;;;15.99;70.85
48216;BME280;34005;48.844;10.098;2023-05-10T08:58:44;96302.06;;;16.11;72.60
48216;BME280;34005;48.844;10.098;2023-05-10T09:01:12;96301.53;;;16.21;71.46
48216;BME280;34005;48.844;10.098;2023-05-10T09:03:41;96314.13;;;16.31;71.71
48216;BME280;34005;48.844;10.098;2023-05-10T09:06:09;96305.47;;;16.42;72.98
48216;BME280;34005;48.844;10.098;2023-05-10T09:08:41;96317.41;;;16.44;70.26
48216;BME280;34005;48.844;10.098;2023-05-10T09:11:09;96318.88;;;16.40;68.90
48216;BME280;34005;48.844;10.098;2023-05-10T09:13:37;96321.81;;;16.32;69.85
48216;BME280;34005;48.844;10.098;2023-05-10T09:16:06;96328.66;;;16.21;71.90
48216;BME280;34005;48.844;10.098;2023-05-10T09:18:47;96322.53;;;16.09;71.77
48216;BME280;34005;48.844;10.098;2023-05-10T09:21:15;96330.50;;;16.02;71.42
48216;BME280;34005;48.844;10.098;2023-05-10T09:23:45;96339.66;;;16.00;73.00
48216;BME280;34005;48.844;10.098;2023-05-10T09:26:14;96335.66;;;15.97;73.76
48216;BME280;34005;48.844;10.098;2023-05-10T09:28:52;96344.00;;;15.94;74.71
48216;BME280;34005;48.844;10.098;2023-05-10T09:31:21;96342.38;;;15.93;73.74
48216;BME280;34005;48.844;10.098;2023-05-10T09:33:49;96339.16;;;15.91;73.60
48216;BME280;34005;48.844;10.098;2023-05-10T09:36:17;96348.09;;;15.90;72.19
48216;BME280;34005;48.844;10.098;2023-05-10T09:38:47;96341.78;;;15.91;75.14
48216;BME280;34005;48.844;10.098;2023-05-10T09:41:16;96341.34;;;15.94;75.60
48216;BME280;34005;48.844;10.098;2023-05-10T09:43:44;96343.09;;;16.00;75.90
48216;BME280;34005;48.844;10.098;2023-05-10T09:46:11;96348.28;;;16.07;76.39
48216;BME280;34005;48.844;10.098;2023-05-10T09:48:44;96346.66;;;16.06;73.80
48216;BME280;34005;48.844;10.098;2023-05-10T09:51:18;96341.50;;;15.99;70.94
48216;BME280;34005;48.844;10.098;2023-05-10T09:53:47;96340.31;;;15.95;74.19
48216;BME280;34005;48.844;10.098;2023-05-10T09:56:34;96348.34;;;16.00;72.99
48216;BME280;34005;48.844;10.098;2023-05-10T09:59:04;96337.59;;;16.02;71.65
48216;BME280;34005;48.844;10.098;2023-05-10T10:01:31;96337.75;;;16.07;72.64
48216;BME280;34005;48.844;10.098;2023-05-10T10:04:02;96339.25;;;16.15;70.68
48216;BME280;34005;48.844;10.098;2023-05-10T10:06:35;96336.16;;;16.18;72.95
48216;BME280;34005;48.844;10.098;2023-05-10T10:09:14;96339.97;;;16.22;71.96
48216;BME280;34005;48.844;10.098;2023-05-10T10:11:45;96337.56;;;16.20;71.67
48216;BME280;34005;48.844;10.098;2023-05-10T10:14:14;96335.03;;;16.14;70.50
48216;BME280;34005;48.844;10.098;2023-05-10T10:16:43;96335.94;;;16.08;70.92
48216;BME280;34005;48.844;10.098;2023-05-10T10:19:33;96330.97;;;15.99;71.92
48216;BME280;34005;48.844;10.098;2023-05-10T10:22:03;96329.00;;;15.95;72.07
48216;BME280;34005;48.844;10.098;2023-05-10T10:24:33;96334.25;;;15.95;72.96
48216;BME280;34005;48.844;10.098;2023-05-10T10:27:09;96331.06;;;15.93;69.96
48216;BME280;34005;48.844;10.098;2023-05-10T10:29:47;96329.00;;;15.95;70.66
48216;BME280;34005;48.844;10.098;2023-05-10T10:32:24;96328.22;;;15.94;70.08
48216;BME280;34005;48.844;10.098;2023-05-10T10:37:43;96330.66;;;16.08;74.22
48216;BME280;34005;48.844;10.098;2023-05-10T16:09:50;96407.03;;;15.82;65.30
48216;BME280;34005;48.844;10.098;2023-05-10T16:12:18;96410.47;;;15.83;67.17
48216;BME280;34005;48.844;10.098;2023-05-10T16:14:45;96409.47;;;15.84;64.57
48216;BME280;34005;48.844;10.098;2023-05-10T16:17:13;96405.66;;;15.80;62.94
48216;BME280;34005;48.844;10.098;2023-05-10T16:19:41;96404.47;;;15.76;64.96
48216;BME280;34005;48.844;10.098;2023-05-10T16:22:09;96408.72;;;15.77;65.88
48216;BME280;34005;48.844;10.098;2023-05-10T16:24:36;96409.41;;;15.72;63.77
48216;BME280;34005;48.844;10.098;2023-05-10T16:27:05;96410.41;;;15.71;65.64
48216;BME280;34005;48.844;10.098;2023-05-10T16:29:33;96412.19;;;15.71;64.26
48216;BME280;34005;48.844;10.098;2023-05-10T16:32:01;96415.44;;;15.73;66.05
48216;BME280;34005;48.844;10.098;2023-05-10T16:34:28;96412.81;;;15.73;63.33
48216;BME280;34005;48.844;10.098;2023-05-10T16:36:56;96422.13;;;15.69;63.04
48216;BME280;34005;48.844;10.098;2023-05-10T16:39:23;96418.72;;;15.68;63.83
48216;BME280;34005;48.844;10.098;2023-05-10T16:41:51;96413.81;;;15.72;66.50
48216;BME280;34005;48.844;10.098;2023-05-10T16:44:20;96414.41;;;15.74;67.60
48216;BME280;34005;48.844;10.098;2023-05-10T16:46:52;96413.63;;;15.73;67.58
48216;BME280;34005;48.844;10.098;2023-05-10T16:49:20;96420.25;;;15.76;67.83
48216;BME280;34005;48.844;10.098;2023-05-10T16:51:51;96421.88;;;15.77;68.07
48216;BME280;34005;48.844;10.098;2023-05-10T16:54:18;96430.56;;;15.77;68.46
48216;BME280;34005;48.844;10.098;2023-05-10T16:56:47;96429.19;;;15.75;67.59
48216;BME280;34005;48.844;10.098;2023-05-10T16:59:14;96427.56;;;15.74;68.26
48216;BME280;34005;48.844;10.098;2023-05-10T17:01:44;96427.97;;;15.71;66.95
48216;BME280;34005;48.844;10.098;2023-05-10T17:04:12;96427.97;;;15.71;67.93
48216;BME280;34005;48.844;10.098;2023-05-10T17:06:40;96431.63;;;15.70;69.43
48216;BME280;34005;48.844;10.098;2023-05-10T17:09:07;96434.09;;;15.64;66.24
48216;BME280;34005;48.844;10.098;2023-05-10T17:11:35;96434.16;;;15.58;65.05
48216;BME280;34005;48.844;10.098;2023-05-10T17:14:02;96440.22;;;15.58;68.63
48216;BME280;34005;48.844;10.098;2023-05-10T17:16:30;96442.66;;;15.60;68.93
48216;BME280;34005;48.844;10.098;2023-05-10T17:18:59;96439.81;;;15.61;68.57
48216;BME280;34005;48.844;10.098;2023-05-10T17:21:27;96441.25;;;15.57;66.53
48216;BME280;34005;48.844;10.098;2023-05-10T17:23:54;96437.25;;;15.55;68.03
48216;BME280;34005;48.844;10.098;2023-05-10T17:26:22;96437.84;;;15.57;69.94
48216;BME280;34005;48.844;10.098;2023-05-10T17:28:51;96446.53;;;15.57;68.75
48216;BME280;34005;48.844;10.098;2023-05-10T17:31:19;96438.03;;;15.55;68.96
48216;BME280;34005;48.844;10.098;2023-05-10T17:33:47;96442.50;;;15.55;68.53
48216;BME280;34005;48.844;10.098;2023-05-10T17:36:17;96441.53;;;15.49;66.86
48216;BME280;34005;48.844;10.098;2023-05-10T17:38:45;96443.56;;;15.47;70.09
48216;BME280;34005;48.844;10.098;2023-05-10T17:41:14;96444.75;;;15.51;70.34
48216;BME280;34005;48.844;10.098;2023-05-10T17:43:42;96439.50;;;15.51;69.46
48216;BME280;34005;48.844;10.098;2023-05-10T17:46:10;96439.13;;;15.48;67.02
48216;BME280;34005;48.844;10.098;2023-05-10T17:48:39;96443.78;;;15.45;68.07
48216;BME280;34005;48.844;10.098;2023-05-10T17:51:07;96442.19;;;15.44;69.84
48216;BME280;34005;48.844;10.098;2023-05-10T17:53:39;96436.72;;;15.46;71.17
48216;BME280;34005;48.844;10.098;2023-05-10T17:56:07;96441.75;;;15.48;70.79
48216;BME280;34005;48.844;10.098;2023-05-10T17:58:35;96440.75;;;15.49;71.59
48216;BME280;34005;48.844;10.098;2023-05-10T18:01:04;96448.38;;;15.50;71.66
48216;BME280;34005;48.844;10.098;2023-05-10T18:03:32;96445.19;;;15.48;69.92
48216;BME280;34005;48.844;10.098;2023-05-10T18:06:01;96452.50;;;15.46;68.39
48216;BME280;34005;48.844;10.098;2023-05-10T18:08:30;96449.28;;;15.44;70.79
48216;BME280;34005;48.844;10.098;2023-05-10T18:11:00;96450.06;;;15.44;71.66
48216;BME280;34005;48.844;10.098;2023-05-10T18:13:28;96447.22;;;15.46;71.49
48216;BME280;34005;48.844;10.098;2023-05-10T18:15:56;96448.25;;;15.45;71.82
48216;BME280;34005;48.844;10.098;2023-05-10T18:18:25;96449.28;;;15.44;71.16
48216;BME280;34005;48.844;10.098;2023-05-10T18:20:53;96449.28;;;15.44;70.56
48216;BME280;34005;48.844;10.098;2023-05-10T18:23:23;96449.28;;;15.44;70.76
48216;BME280;34005;48.844;10.098;2023-05-10T18:25:52;96455.53;;;15.43;70.89
48216;BME280;34005;48.844;10.098;2023-05-10T18:28:21;96454.16;;;15.40;69.29
48216;BME280;34005;48.844;10.098;2023-05-10T18:30:50;96450.94;;;15.38;68.22
48216;BME280;34005;48.844;10.098;2023-05-10T18:33:18;96463.47;;;15.36;69.82
48216;BME280;34005;48.844;10.098;2023-05-10T18:35:47;96461.06;;;15.35;70.29